Time;durP1;ratioP1;P1;durP2;ratioP2;P2;SDS_P1;SDS_P2;PMS_P1;PMS_P2;Temp;Humidity;BMP_temperature;BMP_pressure;BME280_temperature;BME280_humidity;BME280_pressure;Samples;Min_cycle;Max_cycle;Signal;HPM_P1;HPM_P2
2023/05/16 00:01:40;;;;;;;11.30;6.82;;;15.20;99.90;;;;;;5069566;28;20052;-80
2023/05/16 00:04:06;;;;;;;11.43;6.80;;;15.20;99.90;;;;;;5055910;28;20166;-79
2023/05/16 00:06:32;;;;;;;13.73;7.38;;;15.20;99.90;;;;;;5072650;28;20107;-80
2023/05/16 00:08:58;;;;;;;13.40;7.88;;;15.20;99.90;;;;;;5088162;28;20461;-80
2023/05/16 00:11:23;;;;;;;13.45;7.70;;;15.20;99.90;;;;;;5058220;28;20079;-80
2023/05/16 00:13:50;;;;;;;12.77;7.72;;;15.20;99.90;;;;;;5053498;28;20021;-81
2023/05/16 00:16:16;;;;;;;12.10;7.82;;;15.10;99.90;;;;;;5072691;28;20024;-80
2023/05/16 00:18:44;;;;;;;11.13;8.00;;;15.20;99.90;;;;;;5073705;28;20032;-80
2023/05/16 00:21:10;;;;;;;12.15;8.38;;;15.10;99.90;;;;;;5073322;28;20020;-80
2023/05/16 00:23:36;;;;;;;14.27;8.40;;;15.10;99.90;;;;;;5072485;28;20020;-80
2023/05/16 00:26:01;;;;;;;10.43;7.70;;;15.10;99.90;;;;;;5055948;28;20025;-80
2023/05/16 00:28:27;;;;;;;11.77;7.68;;;15.10;99.90;;;;;;5071980;28;20035;-80
2023/05/16 00:30:52;;;;;;;10.73;7.28;;;15.10;99.90;;;;;;5078548;28;20466;-81
2023/05/16 00:33:18;;;;;;;11.15;7.75;;;15.10;99.90;;;;;;5069146;28;20113;-80
2023/05/16 00:35:43;;;;;;;14.10;8.13;;;15.10;99.90;;;;;;5069624;28;20074;-80
2023/05/16 00:38:09;;;;;;;12.55;8.20;;;15.10;99.90;;;;;;5088849;28;20032;-80
2023/05/16 00:40:35;;;;;;;13.65;8.07;;;15.10;99.90;;;;;;5072524;28;20016;-81
2023/05/16 00:43:00;;;;;;;12.73;7.65;;;15.10;99.90;;;;;;5071607;28;20024;-81
2023/05/16 00:45:26;;;;;;;12.48;8.35;;;15.10;99.90;;;;;;5072380;28;20112;-77
2023/05/16 00:47:52;;;;;;;13.65;8.40;;;15.10;99.90;;;;;;5078091;28;20040;-78
2023/05/16 00:50:18;;;;;;;14.18;8.90;;;15.10;99.90;;;;;;5059790;28;20020;-79
2023/05/16 00:52:44;;;;;;;19.33;8.98;;;15.10;99.90;;;;;;5064259;28;20032;-80
2023/05/16 00:55:10;;;;;;;15.23;9.60;;;15.10;99.90;;;;;;5080882;28;20021;-80
2023/05/16 00:57:37;;;;;;;18.13;11.20;;;15.10;99.90;;;;;;5072332;28;20035;-80
2023/05/16 01:00:09;;;;;;;13.10;9.27;;;15.10;99.90;;;;;;5071375;28;20055;-79
2023/05/16 01:02:36;;;;;;;16.63;10.13;;;15.10;99.90;;;;;;5073390;28;20024;-79
2023/05/16 01:05:07;;;;;;;15.65;9.85;;;15.00;99.90;;;;;;5071725;28;20032;-79
2023/05/16 01:07:34;;;;;;;14.87;9.37;;;15.00;99.90;;;;;;5072158;28;20071;-80
2023/05/16 01:10:00;;;;;;;18.55;10.23;;;15.00;99.90;;;;;;5072477;28;20024;-79
2023/05/16 01:12:38;;;;;;;19.60;10.88;;;14.90;99.90;;;;;;5073690;28;20028;-80
2023/05/16 01:15:14;;;;;;;19.52;11.30;;;15.00;99.90;;;;;;5072938;28;20093;-81
2023/05/16 01:17:57;;;;;;;19.33;11.05;;;15.00;99.90;;;;;;5073576;28;20131;-80
2023/05/16 01:20:59;;;;;;;19.63;11.13;;;15.00;99.90;;;;;;5069192;28;20033;-80
2023/05/16 01:23:50;;;;;;;20.02;11.25;;;15.00;99.90;;;;;;5015648;28;20087;-81
2023/05/16 01:26:22;;;;;;;16.60;10.50;;;14.90;99.90;;;;;;5063140;28;20025;-80
2023/05/16 01:28:49;;;;;;;18.58;11.20;;;14.90;99.90;;;;;;5077994;28;20036;-82
2023/05/16 01:31:15;;;;;;;20.88;12.32;;;14.90;99.90;;;;;;5075364;28;20114;-79
2023/05/16 01:33:41;;;;;;;20.25;11.77;;;14.90;99.90;;;;;;5074833;28;20119;-80
2023/05/16 01:36:13;;;;;;;21.83;13.07;;;14.90;99.90;;;;;;5071149;28;20469;-79
2023/05/16 01:38:48;;;;;;;21.30;12.27;;;14.80;99.90;;;;;;5055775;28;20099;-79
2023/05/16 01:41:40;;;;;;;21.52;11.93;;;14.80;99.90;;;;;;5056049;28;20033;-79
2023/05/16 01:44:10;;;;;;;;;;;14.80;99.90;;;;;;5071817;28;20029;-79
2023/05/16 01:46:41;;;;;;;23.65;12.95;;;14.80;99.90;;;;;;5060370;28;19904;-79
2023/05/16 01:49:40;;;;;;;24.45;13.88;;;14.70;99.90;;;;;;5075797;28;20059;-79
2023/05/16 01:52:21;;;;;;;22.70;12.93;;;14.70;99.90;;;;;;5051066;28;20036;-80
2023/05/16 01:54:51;;;;;;;22.58;12.82;;;14.70;99.90;;;;;;5075456;28;20097;-79
2023/05/16 01:57:16;;;;;;;23.10;13.30;;;14.70;99.90;;;;;;5091917;28;20025;-80
2023/05/16 01:59:44;;;;;;;28.40;13.77;;;14.70;99.90;;;;;;5075438;28;20078;-80
2023/05/16 02:02:10;;;;;;;24.85;14.15;;;14.70;99.90;;;;;;5074324;28;20063;-80
2023/05/16 02:04:35;;;;;;;27.15;14.82;;;14.60;99.90;;;;;;5059488;28;20024;-79
2023/05/16 02:07:01;;;;;;;23.02;13.07;;;14.60;99.90;;;;;;5073771;28;20115;-79
2023/05/16 02:09:27;;;;;;;25.00;13.15;;;14.60;99.90;;;;;;5074867;28;20370;-79
2023/05/16 02:11:52;;;;;;;24.38;13.93;;;14.60;99.90;;;;;;5074873;28;20025;-81
2023/05/16 02:14:18;;;;;;;27.35;14.13;;;14.60;99.90;;;;;;5056092;28;20029;-79
2023/05/16 02:16:43;;;;;;;25.40;13.75;;;14.60;99.90;;;;;;5054966;28;20029;-79
2023/05/16 02:19:09;;;;;;;25.40;13.93;;;14.70;99.90;;;;;;5064081;28;20039;-79
2023/05/16 02:21:35;;;;;;;25.25;13.75;;;14.60;99.90;;;;;;5078149;28;20033;-79
2023/05/16 02:24:00;;;;;;;24.08;13.40;;;14.70;99.90;;;;;;5054214;28;20022;-79
2023/05/16 02:26:26;;;;;;;28.85;14.68;;;14.70;99.90;;;;;;5057692;28;20017;-79
2023/05/16 02:28:53;;;;;;;25.35;14.13;;;14.70;99.90;;;;;;5068605;28;20033;-80
2023/05/16 02:31:29;;;;;;;24.63;14.32;;;14.70;99.90;;;;;;5053652;28;20033;-80
2023/05/16 02:33:57;;;;;;;28.70;14.68;;;14.60;99.90;;;;;;5070160;28;20025;-79
2023/05/16 02:36:23;;;;;;;27.77;14.38;;;14.60;99.90;;;;;;5054587;28;20029;-80
2023/05/16 02:38:48;;;;;;;25.65;14.48;;;14.60;99.90;;;;;;5054463;28;20111;-80
2023/05/16 02:41:14;;;;;;;27.65;13.52;;;14.50;99.90;;;;;;5054053;28;20493;-80
2023/05/16 02:43:40;;;;;;;23.00;12.80;;;14.50;99.90;;;;;;5054087;28;20417;-79
2023/05/16 02:46:20;;;;;;;26.92;13.65;;;14.50;99.90;;;;;;5070833;28;20054;-81
2023/05/16 02:48:46;;;;;;;24.80;13.18;;;14.50;99.90;;;;;;5075227;28;20033;-81
2023/05/16 02:51:11;;;;;;;25.85;13.73;;;14.40;99.90;;;;;;5090675;28;20105;-80
2023/05/16 02:53:37;;;;;;;25.77;14.48;;;14.30;99.90;;;;;;5075163;28;20028;-80
2023/05/16 02:56:05;;;;;;;25.35;12.90;;;14.30;99.90;;;;;;5073821;28;20032;-81
2023/05/16 02:58:31;;;;;;;28.73;14.52;;;14.30;99.90;;;;;;5090886;28;20385;-80
2023/05/16 03:00:57;;;;;;;26.65;14.43;;;14.30;99.90;;;;;;5073541;28;20053;-81
2023/05/16 03:03:22;;;;;;;23.70;12.98;;;14.20;99.90;;;;;;5062308;28;20025;-80
2023/05/16 03:05:49;;;;;;;25.25;14.25;;;14.20;99.90;;;;;;5068970;28;20135;-80
2023/05/16 03:08:14;;;;;;;28.15;14.38;;;14.20;99.90;;;;;;5073254;28;20052;-80
2023/05/16 03:10:40;;;;;;;26.25;14.30;;;14.20;99.90;;;;;;5075170;28;20109;-80
2023/05/16 03:13:05;;;;;;;25.70;14.05;;;14.20;99.90;;;;;;5074526;28;20074;-81
2023/05/16 03:15:31;;;;;;;25.05;13.25;;;14.10;99.90;;;;;;5073835;28;20052;-81
2023/05/16 03:17:57;;;;;;;25.98;14.15;;;14.10;99.90;;;;;;5074330;28;20024;-82
2023/05/16 03:20:22;;;;;;;25.88;13.88;;;14.10;99.90;;;;;;5055104;28;20059;-80
2023/05/16 03:22:48;;;;;;;27.48;13.40;;;14.10;99.90;;;;;;5061124;28;20377;-80
2023/05/16 03:25:14;;;;;;;25.58;13.55;;;14.10;99.90;;;;;;5090176;28;20036;-80
2023/05/16 03:27:39;;;;;;;21.08;11.70;;;14.10;99.90;;;;;;5073482;28;20052;-79
2023/05/16 03:30:06;;;;;;;24.80;13.63;;;14.10;99.90;;;;;;5073529;28;20028;-80
2023/05/16 03:32:32;;;;;;;23.45;13.25;;;14.10;99.90;;;;;;5069704;28;20037;-80
2023/05/16 03:34:58;;;;;;;24.52;13.32;;;14.10;99.90;;;;;;5052529;28;20021;-80
2023/05/16 03:37:23;;;;;;;24.48;13.15;;;14.10;99.90;;;;;;5065926;28;20028;-79
2023/05/16 03:39:49;;;;;;;22.92;12.15;;;14.10;99.90;;;;;;5073066;28;20059;-80
2023/05/16 03:42:17;;;;;;;24.77;13.23;;;14.10;99.90;;;;;;5071419;28;20021;-80
2023/05/16 03:44:42;;;;;;;25.25;12.15;;;14.10;99.90;;;;;;5054325;28;20028;-79
2023/05/16 03:47:08;;;;;;;22.65;11.85;;;14.10;99.90;;;;;;5062847;28;20024;-80
2023/05/16 03:49:35;;;;;;;18.92;10.80;;;14.10;99.90;;;;;;5089589;28;20025;-79
2023/05/16 03:52:02;;;;;;;22.58;12.10;;;14.10;99.90;;;;;;5064201;28;20043;-80
2023/05/16 03:54:27;;;;;;;23.77;11.93;;;14.00;99.90;;;;;;5062450;28;20500;-79
2023/05/16 03:56:53;;;;;;;18.98;10.77;;;14.10;99.90;;;;;;5070187;28;20016;-79
2023/05/16 03:59:18;;;;;;;20.48;11.35;;;14.10;99.90;;;;;;5055833;28;20369;-79
2023/05/16 04:01:44;;;;;;;21.33;11.25;;;14.10;99.90;;;;;;5073715;28;20052;-79
2023/05/16 04:04:09;;;;;;;19.63;11.02;;;14.00;99.90;;;;;;5063167;28;20449;-79
2023/05/16 04:06:35;;;;;;;17.40;10.68;;;14.00;99.90;;;;;;5067612;28;20366;-79
2023/05/16 04:09:00;;;;;;;21.58;11.20;;;14.00;99.90;;;;;;5071377;28;20035;-79
2023/05/16 04:11:26;;;;;;;24.02;10.95;;;13.90;99.90;;;;;;5058094;28;20059;-79
2023/05/16 04:13:52;;;;;;;23.55;10.85;;;13.90;99.90;;;;;;5065103;28;20032;-78
2023/05/16 04:16:18;;;;;;;18.92;9.93;;;13.90;99.90;;;;;;5063469;28;20031;-79
2023/05/16 04:18:44;;;;;;;21.67;10.50;;;13.90;99.90;;;;;;5074641;28;20369;-79
2023/05/16 04:21:13;;;;;;;18.20;9.60;;;13.90;99.90;;;;;;5069637;28;20024;-79
2023/05/16 04:23:40;;;;;;;20.05;10.27;;;13.90;99.90;;;;;;5059575;28;20154;-79
2023/05/16 04:26:05;;;;;;;18.23;9.65;;;13.90;99.90;;;;;;5062613;28;20021;-79
2023/05/16 04:28:31;;;;;;;17.75;9.77;;;13.90;99.90;;;;;;5065199;28;20184;-80
2023/05/16 04:30:57;;;;;;;22.30;10.60;;;13.80;99.90;;;;;;5056576;28;20033;-82
2023/05/16 04:33:23;;;;;;;18.50;9.50;;;13.80;99.90;;;;;;5089425;28;20069;-80
2023/05/16 04:35:48;;;;;;;18.40;9.43;;;13.80;99.90;;;;;;5073850;28;20016;-80
2023/05/16 04:38:15;;;;;;;20.35;10.23;;;13.80;99.90;;;;;;5073361;28;20021;-80
2023/05/16 04:40:40;;;;;;;20.35;9.93;;;13.80;99.90;;;;;;5072669;28;20119;-79
2023/05/16 04:43:07;;;;;;;23.60;10.30;;;13.80;99.90;;;;;;5072257;28;20060;-80
2023/05/16 04:45:32;;;;;;;20.25;10.32;;;13.80;99.90;;;;;;5072311;28;20461;-81
2023/05/16 04:48:00;;;;;;;19.30;9.73;;;13.80;99.90;;;;;;5072376;28;20027;-83
2023/05/16 04:50:25;;;;;;;20.20;9.57;;;13.80;99.90;;;;;;5072588;28;20024;-81
2023/05/16 04:52:51;;;;;;;22.52;10.43;;;13.80;99.90;;;;;;5072437;28;20132;-80
2023/05/16 04:55:16;;;;;;;18.67;9.50;;;13.80;99.90;;;;;;5073690;28;20020;-80
2023/05/16 04:57:42;;;;;;;21.33;9.60;;;13.90;99.90;;;;;;5076276;28;20035;-80
2023/05/16 05:00:10;;;;;;;20.13;10.25;;;13.90;99.90;;;;;;5076497;28;20037;-81
2023/05/16 05:02:37;;;;;;;18.33;9.45;;;13.90;99.90;;;;;;5093711;28;20040;-80
2023/05/16 05:05:04;;;;;;;17.98;9.35;;;13.90;99.90;;;;;;5076973;28;20070;-81
2023/05/16 05:07:30;;;;;;;17.48;8.73;;;13.90;99.90;;;;;;5076677;28;20110;-80
2023/05/16 05:09:55;;;;;;;18.10;8.57;;;13.80;99.90;;;;;;5076219;28;20460;-80
2023/05/16 05:12:21;;;;;;;19.13;9.40;;;13.80;99.90;;;;;;5075712;28;20066;-80
2023/05/16 05:14:47;;;;;;;17.60;9.05;;;13.80;99.90;;;;;;5076800;28;20024;-79
2023/05/16 05:17:12;;;;;;;20.15;8.95;;;13.80;99.90;;;;;;5076036;28;20066;-79
2023/05/16 05:19:38;;;;;;;19.08;9.32;;;13.80;99.90;;;;;;5075794;28;20016;-81
2023/05/16 05:22:04;;;;;;;19.23;9.30;;;13.80;99.90;;;;;;5076299;28;20021;-82
2023/05/16 05:24:29;;;;;;;19.95;9.32;;;13.70;99.90;;;;;;5092509;28;20024;-81
2023/05/16 05:26:55;;;;;;;20.35;9.35;;;13.70;99.90;;;;;;5076143;28;20027;-80
2023/05/16 05:29:21;;;;;;;20.88;9.18;;;13.70;99.90;;;;;;5075496;28;20036;-80
2023/05/16 05:31:47;;;;;;;22.08;9.30;;;13.70;99.90;;;;;;5093144;28;20035;-80
2023/05/16 05:34:12;;;;;;;24.00;9.38;;;13.60;99.90;;;;;;5075455;28;20410;-80
2023/05/16 05:36:38;;;;;;;19.80;8.77;;;13.70;99.90;;;;;;5077088;28;20020;-80
2023/05/16 05:39:03;;;;;;;19.58;8.52;;;13.70;99.90;;;;;;5076162;28;20028;-81
2023/05/16 05:41:29;;;;;;;19.60;8.90;;;13.70;99.90;;;;;;5076223;28;20031;-79
2023/05/16 05:43:54;;;;;;;20.25;9.40;;;13.70;99.90;;;;;;5092457;28;20112;-79
2023/05/16 05:46:20;;;;;;;13.57;7.55;;;13.70;99.90;;;;;;5075241;28;20451;-79
2023/05/16 05:48:46;;;;;;;19.33;8.05;;;13.70;99.90;;;;;;5075473;28;20028;-79
2023/05/16 05:51:13;;;;;;;15.55;7.82;;;13.70;99.90;;;;;;5092253;28;20024;-79
2023/05/16 05:53:39;;;;;;;13.38;7.78;;;13.70;99.90;;;;;;5092363;28;20031;-79
2023/05/16 05:56:05;;;;;;;17.50;8.45;;;13.70;99.90;;;;;;5074971;28;20071;-82
2023/05/16 05:58:30;;;;;;;15.13;7.97;;;13.80;99.90;;;;;;5075569;28;20060;-80
2023/05/16 06:00:56;;;;;;;14.20;6.93;;;13.80;99.90;;;;;;5075354;28;20044;-79
2023/05/16 06:03:25;;;;;;;15.00;7.07;;;13.90;99.90;;;;;;5062593;28;20142;-80
2023/05/16 06:05:50;;;;;;;13.43;6.75;;;13.90;99.90;;;;;;5054636;28;20025;-80
2023/05/16 06:08:16;;;;;;;13.52;6.90;;;13.90;99.90;;;;;;5061506;28;20031;-80
2023/05/16 06:10:42;;;;;;;12.27;5.55;;;13.90;99.90;;;;;;5075172;28;20031;-80
2023/05/16 06:13:07;;;;;;;9.88;5.40;;;13.90;99.90;;;;;;5072119;28;20127;-80
2023/05/16 06:15:33;;;;;;;9.45;4.63;;;13.90;99.90;;;;;;5054867;28;20480;-80
2023/05/16 06:17:58;;;;;;;10.65;5.00;;;13.90;99.90;;;;;;5065650;28;20052;-81
2023/05/16 06:20:24;;;;;;;9.63;4.45;;;13.90;99.90;;;;;;5084281;28;20020;-80
2023/05/16 06:22:50;;;;;;;9.90;4.45;;;13.90;99.90;;;;;;5056160;28;20457;-81
2023/05/16 06:25:15;;;;;;;9.70;3.92;;;13.90;99.90;;;;;;5058267;28;20025;-81
2023/05/16 06:27:41;;;;;;;5.72;3.30;;;13.90;99.90;;;;;;5066477;28;20059;-81
2023/05/16 06:30:07;;;;;;;6.70;3.10;;;13.90;99.90;;;;;;5066126;28;20036;-83
2023/05/16 06:32:33;;;;;;;8.68;2.92;;;13.90;99.90;;;;;;5060971;28;20120;-80
2023/05/16 06:34:58;;;;;;;6.97;3.28;;;14.00;99.90;;;;;;5057446;28;20064;-80
2023/05/16 06:37:25;;;;;;;5.88;2.53;;;14.00;99.90;;;;;;5067613;28;20428;-79
2023/05/16 06:39:50;;;;;;;4.30;2.58;;;14.00;99.90;;;;;;5063463;28;20127;-80
2023/05/16 06:42:16;;;;;;;4.93;2.47;;;14.00;99.90;;;;;;5061537;28;20481;-79
2023/05/16 06:44:41;;;;;;;5.60;2.60;;;14.00;99.90;;;;;;5057660;28;20036;-79
2023/05/16 06:47:07;;;;;;;5.25;2.50;;;14.00;99.90;;;;;;5056306;28;20020;-79
2023/05/16 06:49:33;;;;;;;3.60;1.80;;;14.00;99.90;;;;;;5067963;28;20032;-79
2023/05/16 06:51:59;;;;;;;4.25;1.90;;;14.00;99.90;;;;;;5065068;28;20059;-79
2023/05/16 06:54:25;;;;;;;3.40;2.08;;;14.00;99.90;;;;;;5059137;28;20087;-79
2023/05/16 06:56:50;;;;;;;3.40;1.58;;;14.00;99.90;;;;;;5065237;28;20473;-80
2023/05/16 06:59:16;;;;;;;2.58;1.40;;;13.90;99.90;;;;;;5069498;28;20057;-79
2023/05/16 07:01:42;;;;;;;4.70;1.50;;;14.00;99.90;;;;;;5058011;28;20503;-79
2023/05/16 07:04:07;;;;;;;3.30;1.40;;;14.00;99.90;;;;;;5052445;28;20481;-80
2023/05/16 07:06:33;;;;;;;2.97;1.02;;;14.00;99.90;;;;;;5069475;28;20025;-80
2023/05/16 07:08:58;;;;;;;1.27;1.02;;;14.00;99.90;;;;;;5057664;28;20194;-80
2023/05/16 07:11:24;;;;;;;1.35;0.90;;;13.90;99.90;;;;;;5089829;28;20094;-80
2023/05/16 07:13:49;;;;;;;1.92;0.85;;;13.90;99.90;;;;;;5064027;28;20017;-79
2023/05/16 07:16:15;;;;;;;2.35;0.70;;;13.90;99.90;;;;;;5064487;28;20036;-79
2023/05/16 07:18:41;;;;;;;1.92;0.70;;;13.80;99.90;;;;;;5056859;28;20537;-80
2023/05/16 07:21:07;;;;;;;1.58;0.68;;;13.90;99.90;;;;;;5069682;28;20025;-82
2023/05/16 07:23:33;;;;;;;1.73;0.90;;;13.90;99.90;;;;;;5059771;28;20024;-81
2023/05/16 07:25:58;;;;;;;1.63;0.60;;;13.90;99.90;;;;;;5062770;28;20501;-81
2023/05/16 07:28:24;;;;;;;1.42;0.63;;;14.00;99.90;;;;;;5066281;28;20040;-80
2023/05/16 07:30:50;;;;;;;0.60;0.40;;;14.00;99.90;;;;;;5056309;28;20484;-80
2023/05/16 07:33:16;;;;;;;1.08;0.65;;;14.10;99.90;;;;;;5071593;28;20060;-80
2023/05/16 07:35:41;;;;;;;0.95;0.70;;;14.10;99.90;;;;;;5060105;28;20028;-81
2023/05/16 07:38:07;;;;;;;2.25;0.60;;;14.10;99.90;;;;;;5063963;28;20032;-81
2023/05/16 07:40:33;;;;;;;0.88;0.50;;;14.20;99.90;;;;;;5058111;28;20032;-79
2023/05/16 07:42:59;;;;;;;1.85;0.60;;;14.20;99.90;;;;;;5053590;28;20029;-79
2023/05/16 07:45:24;;;;;;;1.58;0.57;;;14.30;99.90;;;;;;5057625;28;20035;-80
2023/05/16 07:47:50;;;;;;;0.68;0.40;;;14.30;99.90;;;;;;5079987;28;20029;-80
2023/05/16 07:50:16;;;;;;;1.20;0.57;;;14.40;99.90;;;;;;5066108;28;20041;-79
2023/05/16 07:52:41;;;;;;;1.35;0.60;;;14.30;99.90;;;;;;5073315;28;20032;-79
2023/05/16 07:55:07;;;;;;;1.02;0.50;;;14.30;99.90;;;;;;5055125;28;20053;-79
2023/05/16 07:57:33;;;;;;;2.33;0.52;;;14.30;99.90;;;;;;5070475;28;20057;-79
2023/05/16 07:59:59;;;;;;;0.55;0.50;;;14.30;99.90;;;;;;5078477;28;20127;-80
2023/05/16 08:02:29;;;;;;;3.30;0.55;;;14.30;99.90;;;;;;5051080;28;20134;-80
2023/05/16 08:04:56;;;;;;;2.50;0.52;;;14.40;99.90;;;;;;5069528;28;20036;-79
2023/05/16 08:07:21;;;;;;;0.50;0.40;;;14.30;99.90;;;;;;5056465;28;20035;-80
2023/05/16 08:09:47;;;;;;;1.08;0.57;;;14.40;99.90;;;;;;5063087;28;20115;-79
2023/05/16 08:12:12;;;;;;;1.48;0.40;;;14.30;99.90;;;;;;5063467;28;20033;-80
2023/05/16 08:14:38;;;;;;;0.70;0.40;;;14.40;99.90;;;;;;5056259;28;20032;-80
2023/05/16 08:17:04;;;;;;;0.63;0.60;;;14.40;99.90;;;;;;5068584;28;20033;-81
2023/05/16 08:19:31;;;;;;;0.70;0.60;;;14.40;99.90;;;;;;5058422;28;20458;-80
2023/05/16 08:21:57;;;;;;;1.40;0.60;;;14.30;99.90;;;;;;5063517;28;20465;-81
2023/05/16 08:24:23;;;;;;;4.10;0.47;;;14.40;99.90;;;;;;5065537;28;20035;-81
2023/05/16 08:26:49;;;;;;;2.47;0.90;;;14.40;99.90;;;;;;5055882;28;20033;-80
2023/05/16 08:29:15;;;;;;;0.50;0.50;;;14.30;99.90;;;;;;5067385;28;20029;-81
2023/05/16 08:31:40;;;;;;;0.75;0.60;;;14.30;99.90;;;;;;5062331;28;20078;-81
2023/05/16 08:34:06;;;;;;;1.02;0.30;;;14.30;99.90;;;;;;5066797;28;20024;-81
2023/05/16 08:36:34;;;;;;;0.82;0.60;;;14.20;99.90;;;;;;5061137;28;20034;-79
2023/05/16 08:39:00;;;;;;;1.50;0.77;;;14.20;99.90;;;;;;5075258;28;20048;-79
2023/05/16 08:41:25;;;;;;;2.05;0.55;;;14.10;99.90;;;;;;5070185;28;20105;-81
2023/05/16 08:43:51;;;;;;;1.63;0.50;;;14.10;99.90;;;;;;5065030;28;20040;-78
2023/05/16 08:46:21;;;;;;;0.93;0.70;;;14.10;99.90;;;;;;5063751;28;20032;-78
2023/05/16 08:48:52;;;;;;;0.98;0.60;;;14.20;99.90;;;;;;5065894;28;20033;-78
2023/05/16 08:51:19;;;;;;;0.85;0.40;;;14.20;99.90;;;;;;5071502;28;20043;-78
2023/05/16 08:53:55;;;;;;;0.55;0.50;;;14.30;99.90;;;;;;5057565;28;20029;-79
2023/05/16 08:56:22;;;;;;;0.90;0.60;;;14.20;99.90;;;;;;5069548;28;20078;-78
2023/05/16 08:58:49;;;;;;;0.77;0.70;;;14.30;99.90;;;;;;5072891;28;20457;-81
2023/05/16 09:01:15;;;;;;;6.78;0.82;;;14.30;99.90;;;;;;5072332;28;20554;-79
2023/05/16 09:03:42;;;;;;;0.80;0.60;;;14.40;99.90;;;;;;5064141;28;20033;-79
2023/05/16 09:06:07;;;;;;;1.35;0.65;;;14.40;99.90;;;;;;5073985;28;20029;-78
2023/05/16 09:08:33;;;;;;;2.38;0.80;;;14.40;99.90;;;;;;5062594;28;20040;-80
2023/05/16 09:11:00;;;;;;;0.60;0.60;;;14.40;99.90;;;;;;5057048;28;20469;-77
2023/05/16 09:13:26;;;;;;;1.38;0.70;;;14.40;99.90;;;;;;5084674;28;20098;-78
2023/05/16 09:16:12;;;;;;;1.50;0.80;;;14.40;99.90;;;;;;5064010;28;20041;-78
2023/05/16 09:18:39;;;;;;;2.28;0.50;;;14.50;99.90;;;;;;5070978;28;20025;-78
2023/05/16 09:21:06;;;;;;;0.95;0.80;;;14.50;99.90;;;;;;5072017;28;20024;-78
2023/05/16 09:23:32;;;;;;;1.02;0.70;;;14.50;99.90;;;;;;5073947;28;20055;-78
2023/05/16 09:25:58;;;;;;;2.05;0.70;;;14.50;99.90;;;;;;5073067;28;20042;-80
2023/05/16 09:28:27;;;;;;;3.10;0.70;;;14.50;99.90;;;;;;5072862;28;20040;-80
2023/05/16 09:30:53;;;;;;;0.93;0.70;;;14.50;99.90;;;;;;5056127;28;20477;-78
2023/05/16 09:33:22;;;;;;;0.60;0.60;;;14.50;99.90;;;;;;5073209;28;20102;-78
2023/05/16 09:36:00;;;;;;;1.05;0.30;;;14.50;99.90;;;;;;5056855;28;20100;-80
2023/05/16 09:38:27;;;;;;;1.75;0.52;;;14.40;99.90;;;;;;5058899;28;20211;-79
2023/05/16 09:40:56;;;;;;;2.90;0.60;;;14.30;99.90;;;;;;5055777;28;20029;-79
2023/05/16 09:43:24;;;;;;;1.00;0.40;;;14.20;99.90;;;;;;5063157;28;20028;-79
2023/05/16 09:45:50;;;;;;;2.70;0.40;;;14.20;99.90;;;;;;5063443;28;20040;-79
2023/05/16 09:48:16;;;;;;;1.88;0.40;;;14.30;99.90;;;;;;5071232;28;20033;-81
2023/05/16 09:50:49;;;;;;;4.43;0.50;;;14.30;99.90;;;;;;5057745;28;20053;-80
2023/05/16 09:53:15;;;;;;;0.50;0.50;;;14.20;99.90;;;;;;5055444;28;20519;-79
2023/05/16 09:55:41;;;;;;;1.70;0.32;;;14.20;99.90;;;;;;5056061;28;20029;-80
2023/05/16 09:58:06;;;;;;;2.92;0.32;;;14.20;99.90;;;;;;5085341;28;20040;-82
2023/05/16 10:00:33;;;;;;;2.72;0.60;;;14.20;99.90;;;;;;5072057;28;20158;-79
2023/05/16 10:03:01;;;;;;;0.73;0.47;;;14.30;99.90;;;;;;5061441;28;20029;-78
2023/05/16 10:05:27;;;;;;;1.35;0.60;;;14.40;99.90;;;;;;5060949;28;20024;-79
2023/05/16 10:07:57;;;;;;;0.50;0.40;;;14.50;99.90;;;;;;5066146;28;20048;-80
2023/05/16 10:10:24;;;;;;;1.45;0.43;;;14.50;99.90;;;;;;5073626;28;20086;-79
2023/05/16 10:12:50;;;;;;;2.58;0.40;;;14.50;99.90;;;;;;5066635;28;20032;-79
2023/05/16 10:15:17;;;;;;;1.10;0.40;;;14.50;99.90;;;;;;5058115;28;20028;-83
2023/05/16 10:17:49;;;;;;;0.95;0.50;;;14.50;99.90;;;;;;5064224;28;20037;-80
2023/05/16 10:20:15;;;;;;;1.70;0.43;;;14.60;99.90;;;;;;5062172;28;20017;-80
2023/05/16 10:22:45;;;;;;;0.40;0.30;;;14.60;99.90;;;;;;5087232;28;20086;-79
2023/05/16 10:25:19;;;;;;;2.92;0.35;;;14.70;99.90;;;;;;5053800;28;20482;-79
2023/05/16 10:27:46;;;;;;;1.45;0.40;;;14.70;99.90;;;;;;5062546;28;20540;-79
2023/05/16 10:30:13;;;;;;;0.80;0.28;;;14.80;99.90;;;;;;5061889;28;20109;-80
2023/05/16 10:32:39;;;;;;;1.83;0.30;;;14.80;99.90;;;;;;5067227;28;20035;-80
2023/05/16 10:35:05;;;;;;;0.35;0.35;;;14.70;99.90;;;;;;5086158;28;20033;-79
2023/05/16 10:37:32;;;;;;;0.63;0.40;;;14.60;99.90;;;;;;5054587;28;20017;-79
2023/05/16 10:40:04;;;;;;;0.77;0.20;;;14.50;99.90;;;;;;5063713;28;20028;-80
2023/05/16 10:42:32;;;;;;;0.47;0.30;;;14.50;99.90;;;;;;5058045;28;20026;-79
2023/05/16 10:45:18;;;;;;;7.30;0.30;;;14.60;99.90;;;;;;5071690;28;20100;-79
2023/05/16 10:47:54;;;;;;;0.15;0.15;;;14.50;99.90;;;;;;5061672;28;20043;-79
2023/05/16 10:50:50;;;;;;;0.20;0.20;;;14.50;99.90;;;;;;5059494;28;20610;-80
2023/05/16 10:53:29;;;;;;;0.63;0.30;;;14.40;99.90;;;;;;5035477;28;20477;-80
2023/05/16 10:55:58;;;;;;;0.52;0.20;;;14.30;99.90;;;;;;5064659;28;20029;-79
2023/05/16 10:58:33;;;;;;;1.45;0.20;;;14.30;99.90;;;;;;5066664;28;20028;-80
2023/05/16 11:01:30;;;;;;;2.95;0.20;;;14.30;99.90;;;;;;5064555;28;20075;-79
2023/05/16 11:03:59;;;;;;;0.80;0.35;;;14.30;99.90;;;;;;5073660;28;20116;-79
2023/05/16 11:06:29;;;;;;;2.15;0.40;;;14.40;99.90;;;;;;5068920;28;20017;-80
2023/05/16 11:09:08;;;;;;;0.65;0.25;;;14.50;99.90;;;;;;5061375;28;20037;-79
2023/05/16 11:11:50;;;;;;;1.23;0.30;;;14.50;99.90;;;;;;5058635;28;20028;-80
2023/05/16 11:14:23;;;;;;;;;;;14.60;99.90;;;;;;5052724;28;20453;-80
2023/05/16 11:17:07;;;;;;;0.47;0.22;;;14.70;99.90;;;;;;5064391;28;20011;-79
2023/05/16 11:19:46;;;;;;;0.77;0.22;;;14.70;99.90;;;;;;5055788;28;20447;-79
2023/05/16 11:22:24;;;;;;;0.70;0.38;;;14.60;99.90;;;;;;5060970;28;20036;-79
2023/05/16 11:24:57;;;;;;;2.17;0.50;;;14.50;99.90;;;;;;5073656;28;20028;-80
2023/05/16 11:27:28;;;;;;;0.90;0.35;;;14.40;99.90;;;;;;5054238;28;20037;-79
2023/05/16 11:29:57;;;;;;;0.47;0.30;;;14.40;99.90;;;;;;5072509;28;20381;-80
2023/05/16 11:32:23;;;;;;;2.05;0.60;;;14.60;99.90;;;;;;5072680;28;20286;-80
2023/05/16 11:34:50;;;;;;;1.58;0.40;;;14.50;99.90;;;;;;5052629;28;20474;-79
2023/05/16 11:37:18;;;;;;;1.35;0.60;;;14.60;99.90;;;;;;5054520;28;20056;-80
2023/05/16 11:39:44;;;;;;;0.60;0.22;;;14.70;99.90;;;;;;5072127;28;20031;-80
2023/05/16 11:42:09;;;;;;;0.65;0.40;;;14.80;99.90;;;;;;5061835;28;20021;-80
2023/05/16 11:44:35;;;;;;;2.95;0.50;;;14.90;99.90;;;;;;5079944;28;20048;-80
2023/05/16 11:47:01;;;;;;;1.27;0.30;;;14.70;99.90;;;;;;5061136;28;20045;-79
2023/05/16 11:49:30;;;;;;;0.93;0.40;;;14.60;99.90;;;;;;5056986;28;20032;-80
2023/05/16 11:51:56;;;;;;;0.73;0.40;;;14.80;99.90;;;;;;5052129;28;20029;-80
2023/05/16 11:54:23;;;;;;;1.45;0.40;;;14.90;99.90;;;;;;5050626;28;20075;-79
2023/05/16 11:56:52;;;;;;;0.50;0.40;;;15.00;99.90;;;;;;5063649;28;20028;-80
2023/05/16 11:59:18;;;;;;;0.95;0.38;;;15.20;99.90;;;;;;5057856;28;20051;-80
2023/05/16 12:01:44;;;;;;;1.10;0.40;;;15.30;99.90;;;;;;5069320;28;20057;-80
2023/05/16 12:04:12;;;;;;;0.95;0.30;;;15.40;99.90;;;;;;5067812;28;20048;-80
2023/05/16 12:06:39;;;;;;;3.50;0.32;;;15.40;99.90;;;;;;5062333;28;20054;-79
2023/05/16 12:09:09;;;;;;;0.65;0.35;;;15.50;99.90;;;;;;5066027;28;20483;-79
2023/05/16 12:11:43;;;;;;;0.68;0.40;;;15.40;99.90;;;;;;5063874;28;20028;-79
2023/05/16 12:14:11;;;;;;;1.35;0.22;;;15.20;99.90;;;;;;5066632;28;20025;-79
2023/05/16 12:16:37;;;;;;;1.55;0.60;;;15.20;99.90;;;;;;5063080;28;20021;-79
2023/05/16 12:19:07;;;;;;;1.65;0.65;;;15.10;99.90;;;;;;5058910;28;20033;-79
2023/05/16 12:21:33;;;;;;;2.22;0.73;;;14.90;99.90;;;;;;5059846;28;20032;-79
2023/05/16 12:23:59;;;;;;;2.67;0.60;;;14.60;99.90;;;;;;5056197;28;20032;-79
2023/05/16 12:26:29;;;;;;;1.58;0.60;;;14.50;99.90;;;;;;5072075;28;20024;-79
2023/05/16 12:28:59;;;;;;;1.85;0.70;;;14.50;99.90;;;;;;5059629;28;20389;-79
2023/05/16 12:31:25;;;;;;;2.63;0.70;;;14.40;99.90;;;;;;5052489;28;20029;-80
2023/05/16 12:33:54;;;;;;;2.28;0.63;;;14.50;99.90;;;;;;5054877;28;20095;-79
2023/05/16 12:36:20;;;;;;;2.50;0.57;;;14.60;99.90;;;;;;5063319;28;20028;-79
2023/05/16 12:38:47;;;;;;;1.90;0.63;;;14.80;99.90;;;;;;5057873;28;20048;-79
2023/05/16 12:41:22;;;;;;;3.05;0.82;;;14.80;99.90;;;;;;5067414;28;20035;-80
2023/05/16 12:43:48;;;;;;;0.75;0.50;;;14.70;99.90;;;;;;5060101;28;20086;-79